Stations météo

réclame
Mon MeteoGroup
Zumaya, Espagne (8026): Température de l'air & dewpoint: 17.11.2017 12:00:00 - 23.11.2017 12:00:00 (CET)Zumaya, Espagne (8026): Vitesse du vent & gusts: 17.11.2017 12:00:00 - 23.11.2017 12:00:00 (CET)Zumaya, Espagne (8026): Direction du vent: 17.11.2017 12:00:00 - 23.11.2017 12:00:00 (CET)Zumaya, Espagne (8026): Quantités de précipitations: 17.11.2017 12:00:00 - 23.11.2017 12:00:00 (CET)
Date & Time tt [°C] td [°C] ff [km/h] ff [knt] fx [km/h] fx [knt] dd rr [mm]
23.11.2017 12:00:00 - - - - - - - -
23.11.2017 11:00:00 20,0 6,7 11 6 32 18 SSW 0,0
23.11.2017 10:00:00 19,7 5,8 8 4 47 25 SW 0,0
23.11.2017 09:00:00 20,0 5,3 19 10 71 38 SSW 0,0
23.11.2017 08:00:00 20,0 5,3 27 15 55 30 SSW 0,0
23.11.2017 07:00:00 20,7 4,3 20 11 46 25 SSW -
23.11.2017 06:00:00 20,6 4,1 24 13 57 31 SSW 0,0
23.11.2017 05:00:00 20,9 4,5 31 17 70 38 SSW 0,0
23.11.2017 04:00:00 20,6 4,1 30 16 54 29 SSW 0,0
23.11.2017 03:00:00 20,0 3,6 21 11 54 29 SSW 0,0
23.11.2017 02:00:00 20,4 3,6 21 11 46 25 SSW 0,0
23.11.2017 01:00:00 21,0 3,6 21 11 44 24 SSW -
23.11.2017 00:00:00 19,3 3,4 22 12 40 21 S 0,0
22.11.2017 23:00:00 19,1 3,2 21 11 45 25 S 0,0
22.11.2017 22:00:00 18,7 3,2 23 13 41 22 S 0,0
22.11.2017 21:00:00 18,6 2,9 11 6 39 21 SSE 0,0
22.11.2017 20:00:00 18,9 2,7 13 7 46 25 S 0,0
22.11.2017 19:00:00 18,9 2,7 24 13 44 24 S -
22.11.2017 18:00:00 19,5 2,9 31 17 58 31 SSW 0,0
22.11.2017 17:00:00 20,6 3,8 24 13 40 21 S 0,0
22.11.2017 16:00:00 21,4 3,9 29 16 45 24 S 0,0
22.11.2017 15:00:00 22,8 4,8 30 16 54 29 S 0,0
22.11.2017 14:00:00 23,2 5,1 35 19 60 33 SSW 0,0
22.11.2017 13:00:00 22,9 4,8 31 17 66 36 SSW -
22.11.2017 12:00:00 22,2 4,3 39 21 66 36 SSW 0,0
22.11.2017 11:00:00 20,1 3,2 36 19 59 32 S 0,0
22.11.2017 10:00:00 18,8 3,0 37 20 69 38 S 0,0
22.11.2017 09:00:00 18,0 2,7 40 22 68 37 S 0,0
22.11.2017 08:00:00 16,9 2,1 42 23 69 37 S 0,0
22.11.2017 07:00:00 16,5 2,1 42 23 69 37 S -
22.11.2017 06:00:00 16,7 2,3 32 18 54 29 S 0,0
22.11.2017 05:00:00 16,7 2,3 19 10 40 22 S 0,0
22.11.2017 04:00:00 17,0 2,3 17 9 35 19 S 0,0
22.11.2017 03:00:00 16,1 1,7 14 7 28 15 SSW 0,0
22.11.2017 02:00:00 15,2 2,3 5 3 24 13 SSW 0,0
22.11.2017 01:00:00 12,1 3,6 9 5 38 20 S -
22.11.2017 00:00:00 10,0 5,5 15 8 21 11 S 0,0
21.11.2017 23:00:00 9,6 5,8 11 6 18 10 S 0,0
21.11.2017 22:00:00 9,8 6,4 11 6 21 11 S 0,0
21.11.2017 21:00:00 10,0 7,1 13 7 20 11 S 0,0
21.11.2017 20:00:00 11,0 7,6 15 8 22 12 S 0,0
21.11.2017 19:00:00 11,9 8,0 12 6 19 10 S -
21.11.2017 18:00:00 13,5 8,1 14 7 17 9 S 0,0
21.11.2017 17:00:00 17,1 7,7 0 0 13 7 N 0,0
21.11.2017 16:00:00 17,6 5,1 8 4 13 7 ENE 0,0
21.11.2017 15:00:00 18,0 8,0 9 5 18 10 NE 0,0
21.11.2017 14:00:00 16,3 8,8 6 4 10 5 NNW 0,0
21.11.2017 13:00:00 17,2 7,3 0 0 9 5 N -
21.11.2017 12:00:00 17,9 7,8 8 5 17 9 S 0,0
21.11.2017 11:00:00 15,5 7,7 13 7 19 11 S 0,0
21.11.2017 10:00:00 12,2 6,7 16 9 21 12 S 0,0
21.11.2017 09:00:00 8,8 5,8 17 9 21 12 S 0,0
21.11.2017 08:00:00 8,0 5,3 16 9 20 11 S 0,0
21.11.2017 07:00:00 8,0 5,1 17 9 21 12 S -
21.11.2017 06:00:00 8,3 5,5 17 9 23 12 S 0,0
21.11.2017 05:00:00 8,4 5,6 18 10 23 13 S 0,0
21.11.2017 04:00:00 8,2 5,8 16 9 23 12 S 0,0
21.11.2017 03:00:00 8,9 6,2 20 11 23 12 S 0,0
21.11.2017 02:00:00 8,4 6,5 20 11 24 13 S 0,0
21.11.2017 01:00:00 8,4 6,8 20 11 24 13 S -
21.11.2017 00:00:00 8,6 7,3 19 10 23 12 S 0,0
20.11.2017 23:00:00 9,0 8,0 17 9 19 11 S 0,0
20.11.2017 22:00:00 9,3 8,4 13 7 19 10 S 0,0
20.11.2017 21:00:00 9,5 8,8 16 9 20 11 S 0,0
20.11.2017 20:00:00 9,9 9,2 11 6 16 8 S 0,0
20.11.2017 19:00:00 10,2 8,9 10 5 13 7 S -
20.11.2017 18:00:00 11,5 8,9 7 4 8 5 S 0,0
20.11.2017 17:00:00 13,5 9,2 1 1 16 9 E 0,0
20.11.2017 16:00:00 13,8 8,8 11 6 20 11 NE 0,0
20.11.2017 15:00:00 14,6 8,9 9 5 15 8 NE 0,0
20.11.2017 14:00:00 14,2 8,7 8 5 12 6 NE 0,0
20.11.2017 13:00:00 13,5 8,1 0 0 8 4 N -
20.11.2017 12:00:00 13,1 6,4 1 1 14 7 NE 0,0
20.11.2017 11:00:00 11,5 6,8 11 6 18 10 S 0,0
20.11.2017 10:00:00 8,4 6,5 13 7 19 11 S 0,0
20.11.2017 09:00:00 5,7 5,3 14 8 22 12 S 0,0
20.11.2017 08:00:00 4,5 4,3 16 9 21 11 S 0,0
20.11.2017 07:00:00 4,7 4,5 14 8 19 11 S -
20.11.2017 06:00:00 4,8 4,5 15 8 19 10 S 0,0
20.11.2017 05:00:00 5,0 4,6 15 8 19 10 S 0,0
20.11.2017 04:00:00 5,1 4,8 14 8 18 10 S 0,0
20.11.2017 03:00:00 5,5 5,1 14 8 18 10 S 0,0
20.11.2017 02:00:00 5,6 5,1 14 8 19 10 S 0,0
20.11.2017 01:00:00 5,7 5,3 16 8 18 10 S -
20.11.2017 00:00:00 6,0 5,6 15 8 18 10 S 0,0
19.11.2017 23:00:00 6,4 5,8 14 7 17 9 S 0,0
19.11.2017 22:00:00 6,6 5,9 13 7 17 9 S 0,0
19.11.2017 21:00:00 7,1 6,2 14 7 17 9 S 0,0
19.11.2017 20:00:00 7,9 6,7 12 7 16 8 S 0,0
19.11.2017 19:00:00 8,9 6,7 10 6 13 7 S -
19.11.2017 18:00:00 10,6 6,4 6 3 8 5 S 0,0
19.11.2017 17:00:00 12,7 7,6 5 3 16 8 NE 0,0
19.11.2017 16:00:00 12,5 6,7 9 5 16 9 NE 0,0
19.11.2017 15:00:00 13,5 6,5 10 5 17 9 NE 0,0
19.11.2017 14:00:00 13,3 7,1 11 6 16 8 NE 0,0
19.11.2017 13:00:00 13,0 7,7 7 4 12 7 NNE -
19.11.2017 12:00:00 13,6 8,8 5 3 14 8 S 0,0
19.11.2017 11:00:00 10,7 8,4 11 6 17 9 S 0,0
19.11.2017 10:00:00 7,4 7,3 13 7 18 10 S 0,0
19.11.2017 09:00:00 5,9 5,8 13 7 19 10 S 0,0
19.11.2017 08:00:00 5,2 5,1 15 8 19 10 S 0,1
19.11.2017 07:00:00 5,4 5,3 15 8 18 10 S -
19.11.2017 06:00:00 5,7 5,6 14 8 18 10 S 0,0
19.11.2017 05:00:00 5,9 5,8 14 8 18 10 S 0,0
19.11.2017 04:00:00 6,1 5,9 15 8 18 10 S 0,0
19.11.2017 03:00:00 6,4 6,2 13 7 17 9 S 0,0
19.11.2017 02:00:00 6,7 6,5 13 7 18 10 S 0,0
19.11.2017 01:00:00 7,2 6,8 13 7 16 9 S -
19.11.2017 00:00:00 7,4 7,1 13 7 17 9 S 0,0
18.11.2017 23:00:00 7,9 7,4 13 7 16 9 S 0,0
18.11.2017 22:00:00 8,7 8,1 11 6 14 7 S 0,0
18.11.2017 21:00:00 9,5 8,8 9 5 11 6 S 0,0
18.11.2017 20:00:00 10,3 9,0 6 3 8 5 S 0,0
18.11.2017 19:00:00 10,8 8,5 6 3 8 4 S -
18.11.2017 18:00:00 12,2 9,0 0 0 17 9 NNW 0,0
18.11.2017 17:00:00 13,1 10,0 10 5 13 7 NNW 0,0
18.11.2017 16:00:00 13,6 10,2 8 4 15 8 NNW 0,0
18.11.2017 15:00:00 14,2 10,8 10 6 26 14 NNE 0,0
18.11.2017 14:00:00 14,5 10,8 16 9 23 12 N 0,0
18.11.2017 13:00:00 15,1 10,9 10 6 20 11 NNW -
18.11.2017 12:00:00 13,7 10,5 13 7 20 11 N 0,0
18.11.2017 11:00:00 14,4 12,4 5 3 13 7 SSW 0,0
18.11.2017 10:00:00 11,1 10,8 11 6 16 8 SSW 0,0
18.11.2017 09:00:00 9,6 9,4 13 7 16 9 SSW 0,0
18.11.2017 08:00:00 9,3 9,2 12 7 16 9 S 0,0
18.11.2017 07:00:00 8,9 8,8 13 7 16 9 S -
18.11.2017 06:00:00 8,5 8,4 13 7 16 9 S 0,0
18.11.2017 05:00:00 7,9 7,7 13 7 17 9 S 0,0
18.11.2017 04:00:00 8,1 8,0 12 7 15 8 S 0,0
18.11.2017 03:00:00 8,3 8,1 12 7 16 8 S 0,0
18.11.2017 02:00:00 8,6 8,4 13 7 16 9 S 0,0
18.11.2017 01:00:00 8,8 8,7 13 7 16 8 S -
18.11.2017 00:00:00 9,1 8,8 12 6 15 8 S 0,0
17.11.2017 23:00:00 9,6 9,0 12 6 15 8 S 0,0
17.11.2017 22:00:00 10,4 9,7 10 6 13 7 S 0,0
17.11.2017 21:00:00 11,6 10,5 10 5 12 6 S 0,0
17.11.2017 20:00:00 12,5 10,9 7 4 10 5 S 0,0
17.11.2017 19:00:00 13,2 11,1 6 3 9 5 SSW -
17.11.2017 18:00:00 14,1 11,2 6 3 16 9 WNW 0,0
17.11.2017 17:00:00 14,9 11,1 8 4 14 8 NW 0,0
17.11.2017 16:00:00 15,5 11,1 8 5 16 8 NW 0,0
17.11.2017 15:00:00 16,5 11,4 9 5 16 8 NW 0,0
17.11.2017 14:00:00 16,4 11,3 4 2 9 5 WNW 0,0
17.11.2017 13:00:00 15,7 11,1 6 4 11 6 NW -
17.11.2017 12:00:00 16,0 10,5 4 2 13 7 S 0,0

tt = Température de l'air
td = dewpoint
ff = Vitesse du vent
fx = gusts
dd = Direction du vent
rr = Quantités de précipitations

stations d'obs. à proximité